Interior, SD (57750)

12:45 AM MST on February 21, 2017 (GMT -0700)
Philip | | Change Station
Active Advisory: Areal Flood Advisory Active Notice: Areal Flood Advisory

Elev 2205 ft 44.05 °N, 101.60 °W | Updated 50 minutes ago

Clear
Clear
51 °F
Feels Like 51 °F
N
13
Wind Variable Wind from WSW

Today
High -- | Low -- °F
--% Chance of Precip.
Yesterday
High -- | Low -- °F
Precip. -- in
Pressure 29.74 in
Visibility 10.0 miles
Clouds Clear
Dew Point 32 °F
Humidity 48%
Rainfall 0.03 in
Snow Depth Not available.
6:37 AM 5:26 PM
Waning Crescent, 27% visible
METAR KPHP 210655Z AUTO 24011KT 10SM CLR 11/00 A2975 RMK AO2 SLP071 T01060000 401720044 $
Pressure 29.74 in
Visibility 10.0 miles
Clouds Clear
Dew Point 32 °F
Humidity 48%
Rainfall 0.03 in
Snow Depth Not available.
6:37 AM 5:26 PM
Waning Crescent, 27% visible
METAR KPHP 210655Z AUTO 24011KT 10SM CLR 11/00 A2975 RMK AO2 SLP071 T01060000 401720044 $

Get Your Daily Forecast Email!

Thanks for signing up!

Be on the lookout for a verification email in your inbox.

You'll start receiving the daily forecast at 8 AM.

×

10-Day Weather Forecast

Almanac

Astronomy

Feb. 21, 2017 Rise Set
Actual Time
Civil Twilight
Nautical Twilight
Astronomical Twilight
Moon
Length of Visible Light
Length of Day
Tomorrow will be .
, % of the Moon is Illuminated

Today's Extremes

State Highs State Lows

Community

WunderPhotos

Upload Photos

1,962,540 photos uploaded!

WunderBlog® & News

Nearby

Air Quality

  Air Quality AQ Index Pollutant
Not available.

Snow Depth

Station Depth Elevation

Earthquake Activity

City Distance Mag. Time & Date
Minimum magnitude displayed is 2.5.

Coastal Water Temperatures

Place Temperature

Stations

Nearby Weather Stations

Station Location Temp. Windchill Dew Point Humidity Wind Precip. Elev Updated Type
                   

Watches & Warnings

Areal Flood Advisory
Issued: 2:56 PM MST Feb. 20, 2017 – National Weather Service

... The flood advisory for an ice jam for rapid rises remains in
effect until 815 PM MST Tuesday/915 PM CST Tuesday/ for northwestern
Tripp... northern Mellette and central Jackson counties...

Ice jams on the White River from near interior to the Missouri River
continue to cause minor flooding. Rapid rises due to the ice jams
will result in minor flooding of agricultural land along the river
early this week.

Some locations that will experience flooding include...
low lands along the White River from near interior to the Missouri
River.

Precautionary/preparedness actions...

Stay away or be swept away. River banks and culverts can become
unstable and unsafe.

A flood advisory means river or stream flows are elevated, or ponding
of water in urban or other areas is occurring or is imminent.


Lat... Lon 4364 9994 4368 10152 4364 10198 4373 10201
      4388 10106 4375 10079 4374 10080 4371 10068
      4377 10058 4372 10047 4370 9990 4367 9987
      4371 9975 4375 9975 4373 9974 4376 9969
      4373 9967 4377 9966 4374 9962 4367 9963


Johnson